Kalkaska, Michigan
Current Conditions -  °F | °C
As of 1:37 PM on Sunday 23 Nov 2014 (Local Time) from KACB Reporting Station
Overcast Overcast  
Wind Chill: 46°   Ceiling: 1900
Heat Index: 49°   Visibility: 10mi
Dew Point: 44°   Wind: 7mph
Humidity: 81%   Direction: 180°S
Pressure: 29.64"   Gusts: NA
Location:  44.73°N, 85.18°W
Report Text: KACB 231837Z AUTO 18006KT 10SM OVC019 10/06 A2964 RMK AO2 T00960064
Loading
Personal Weather Stations






























Interactive Weather Map New forecast layout! Learn more

10-Day Weather Forecast

Advertisements
Track Severe Weather on mobile